sensor_id;sensor_type;location;lat;lon;timestamp;P1;durP1;ratioP1;P2;durP2;ratioP2
10335;SDS011;5213;53.548;9.930;2023-08-01T00:01:27;4.38;;;4.03;;
10335;SDS011;5213;53.548;9.930;2023-08-01T00:03:53;3.83;;;3.53;;
10335;SDS011;5213;53.548;9.930;2023-08-01T00:06:19;3.92;;;3.45;;
10335;SDS011;5213;53.548;9.930;2023-08-01T00:08:45;2.85;;;2.65;;
10335;SDS011;5213;53.548;9.930;2023-08-01T00:11:10;3.00;;;2.80;;
10335;SDS011;5213;53.548;9.930;2023-08-01T00:13:39;2.95;;;2.75;;
10335;SDS011;5213;53.548;9.930;2023-08-01T00:16:05;3.55;;;3.20;;
10335;SDS011;5213;53.548;9.930;2023-08-01T00:18:31;4.05;;;3.65;;
10335;SDS011;5213;53.548;9.930;2023-08-01T00:20:56;3.80;;;3.50;;
10335;SDS011;5213;53.548;9.930;2023-08-01T00:23:23;4.25;;;3.85;;
10335;SDS011;5213;53.548;9.930;2023-08-01T00:25:49;4.10;;;3.80;;
10335;SDS011;5213;53.548;9.930;2023-08-01T00:28:17;3.38;;;3.17;;
10335;SDS011;5213;53.548;9.930;2023-08-01T00:30:43;2.92;;;2.50;;
10335;SDS011;5213;53.548;9.930;2023-08-01T00:33:09;2.92;;;2.40;;
10335;SDS011;5213;53.548;9.930;2023-08-01T00:35:34;2.50;;;2.30;;
10335;SDS011;5213;53.548;9.930;2023-08-01T00:38:00;2.88;;;2.67;;
10335;SDS011;5213;53.548;9.930;2023-08-01T00:40:32;2.60;;;2.50;;
10335;SDS011;5213;53.548;9.930;2023-08-01T00:42:58;3.00;;;2.70;;
10335;SDS011;5213;53.548;9.930;2023-08-01T00:45:24;3.30;;;3.00;;
10335;SDS011;5213;53.548;9.930;2023-08-01T00:47:51;3.50;;;3.20;;
10335;SDS011;5213;53.548;9.930;2023-08-01T00:50:17;3.35;;;3.05;;
10335;SDS011;5213;53.548;9.930;2023-08-01T00:52:45;3.30;;;3.10;;
10335;SDS011;5213;53.548;9.930;2023-08-01T00:55:11;3.28;;;3.08;;
10335;SDS011;5213;53.548;9.930;2023-08-01T00:57:37;3.17;;;2.88;;
10335;SDS011;5213;53.548;9.930;2023-08-01T01:00:03;3.42;;;3.13;;
10335;SDS011;5213;53.548;9.930;2023-08-01T01:02:29;3.35;;;2.97;;
10335;SDS011;5213;53.548;9.930;2023-08-01T01:04:55;3.35;;;3.08;;
10335;SDS011;5213;53.548;9.930;2023-08-01T01:07:21;2.97;;;2.78;;
10335;SDS011;5213;53.548;9.930;2023-08-01T01:09:47;5.05;;;3.45;;
10335;SDS011;5213;53.548;9.930;2023-08-01T01:12:13;3.50;;;3.20;;
10335;SDS011;5213;53.548;9.930;2023-08-01T01:14:38;3.50;;;3.20;;
10335;SDS011;5213;53.548;9.930;2023-08-01T01:17:04;4.32;;;3.88;;
10335;SDS011;5213;53.548;9.930;2023-08-01T01:19:30;4.22;;;3.83;;
10335;SDS011;5213;53.548;9.930;2023-08-01T01:24:44;3.72;;;3.42;;
10335;SDS011;5213;53.548;9.930;2023-08-01T01:27:11;4.30;;;3.90;;
10335;SDS011;5213;53.548;9.930;2023-08-01T01:29:38;4.30;;;4.00;;
10335;SDS011;5213;53.548;9.930;2023-08-01T01:32:05;4.05;;;3.75;;
10335;SDS011;5213;53.548;9.930;2023-08-01T01:34:32;4.80;;;4.32;;
10335;SDS011;5213;53.548;9.930;2023-08-01T01:36:57;5.18;;;4.68;;
10335;SDS011;5213;53.548;9.930;2023-08-01T01:39:23;4.80;;;4.40;;
10335;SDS011;5213;53.548;9.930;2023-08-01T01:41:49;5.22;;;4.82;;
10335;SDS011;5213;53.548;9.930;2023-08-01T01:44:14;5.68;;;5.18;;
10335;SDS011;5213;53.548;9.930;2023-08-01T01:46:40;6.00;;;5.25;;
10335;SDS011;5213;53.548;9.930;2023-08-01T01:49:05;5.60;;;4.97;;
10335;SDS011;5213;53.548;9.930;2023-08-01T01:51:31;5.53;;;5.03;;
10335;SDS011;5213;53.548;9.930;2023-08-01T01:53:57;6.07;;;5.32;;
10335;SDS011;5213;53.548;9.930;2023-08-01T01:56:22;5.75;;;5.07;;
10335;SDS011;5213;53.548;9.930;2023-08-01T01:58:48;5.38;;;4.93;;
10335;SDS011;5213;53.548;9.930;2023-08-01T02:01:13;6.47;;;5.97;;
10335;SDS011;5213;53.548;9.930;2023-08-01T02:03:39;6.00;;;5.43;;
10335;SDS011;5213;53.548;9.930;2023-08-01T02:06:05;7.07;;;6.47;;
10335;SDS011;5213;53.548;9.930;2023-08-01T02:08:30;6.50;;;5.90;;
10335;SDS011;5213;53.548;9.930;2023-08-01T02:10:56;6.85;;;6.25;;
10335;SDS011;5213;53.548;9.930;2023-08-01T02:13:26;7.80;;;7.03;;
10335;SDS011;5213;53.548;9.930;2023-08-01T02:15:52;7.82;;;6.90;;
10335;SDS011;5213;53.548;9.930;2023-08-01T02:18:19;8.35;;;7.65;;
10335;SDS011;5213;53.548;9.930;2023-08-01T02:20:44;10.25;;;8.57;;
10335;SDS011;5213;53.548;9.930;2023-08-01T02:23:10;9.63;;;8.18;;
10335;SDS011;5213;53.548;9.930;2023-08-01T02:25:39;9.75;;;8.75;;
10335;SDS011;5213;53.548;9.930;2023-08-01T02:28:05;8.50;;;7.70;;
10335;SDS011;5213;53.548;9.930;2023-08-01T02:30:31;8.07;;;7.38;;
10335;SDS011;5213;53.548;9.930;2023-08-01T02:32:57;8.38;;;7.57;;
10335;SDS011;5213;53.548;9.930;2023-08-01T02:35:23;10.45;;;8.68;;
10335;SDS011;5213;53.548;9.930;2023-08-01T02:37:48;9.55;;;8.52;;
10335;SDS011;5213;53.548;9.930;2023-08-01T02:40:14;8.65;;;7.93;;
10335;SDS011;5213;53.548;9.930;2023-08-01T02:42:40;9.27;;;8.35;;
10335;SDS011;5213;53.548;9.930;2023-08-01T02:45:05;9.23;;;8.18;;
10335;SDS011;5213;53.548;9.930;2023-08-01T02:47:31;9.38;;;8.43;;
10335;SDS011;5213;53.548;9.930;2023-08-01T02:49:57;8.95;;;8.05;;
10335;SDS011;5213;53.548;9.930;2023-08-01T02:52:22;9.60;;;8.70;;
10335;SDS011;5213;53.548;9.930;2023-08-01T02:54:48;9.48;;;8.57;;
10335;SDS011;5213;53.548;9.930;2023-08-01T02:57:13;10.65;;;8.95;;
10335;SDS011;5213;53.548;9.930;2023-08-01T02:59:39;9.85;;;8.95;;
10335;SDS011;5213;53.548;9.930;2023-08-01T03:02:05;9.80;;;8.90;;
10335;SDS011;5213;53.548;9.930;2023-08-01T03:04:30;10.73;;;9.38;;
10335;SDS011;5213;53.548;9.930;2023-08-01T03:06:56;10.13;;;9.13;;
10335;SDS011;5213;53.548;9.930;2023-08-01T03:09:21;9.93;;;8.88;;
10335;SDS011;5213;53.548;9.930;2023-08-01T03:11:47;12.85;;;9.60;;
10335;SDS011;5213;53.548;9.930;2023-08-01T03:14:12;11.77;;;9.68;;
10335;SDS011;5213;53.548;9.930;2023-08-01T03:16:38;12.27;;;10.23;;
10335;SDS011;5213;53.548;9.930;2023-08-01T03:19:04;10.55;;;9.45;;
10335;SDS011;5213;53.548;9.930;2023-08-01T03:21:33;11.05;;;9.50;;
10335;SDS011;5213;53.548;9.930;2023-08-01T03:23:59;12.23;;;9.70;;
10335;SDS011;5213;53.548;9.930;2023-08-01T03:26:26;9.68;;;8.68;;
10335;SDS011;5213;53.548;9.930;2023-08-01T03:28:53;11.32;;;10.15;;
10335;SDS011;5213;53.548;9.930;2023-08-01T03:31:20;11.20;;;9.70;;
10335;SDS011;5213;53.548;9.930;2023-08-01T03:33:46;10.55;;;9.45;;
10335;SDS011;5213;53.548;9.930;2023-08-01T03:36:12;11.05;;;9.95;;
10335;SDS011;5213;53.548;9.930;2023-08-01T03:38:38;11.00;;;9.40;;
10335;SDS011;5213;53.548;9.930;2023-08-01T03:41:04;10.88;;;9.77;;
10335;SDS011;5213;53.548;9.930;2023-08-01T03:43:30;10.48;;;9.32;;
10335;SDS011;5213;53.548;9.930;2023-08-01T03:45:55;10.10;;;9.20;;
10335;SDS011;5213;53.548;9.930;2023-08-01T03:48:21;9.85;;;8.85;;
10335;SDS011;5213;53.548;9.930;2023-08-01T03:50:47;11.52;;;9.38;;
10335;SDS011;5213;53.548;9.930;2023-08-01T03:53:12;9.95;;;8.75;;
10335;SDS011;5213;53.548;9.930;2023-08-01T03:55:38;10.07;;;8.98;;
10335;SDS011;5213;53.548;9.930;2023-08-01T03:58:04;10.27;;;9.13;;
10335;SDS011;5213;53.548;9.930;2023-08-01T04:00:29;10.57;;;9.57;;
10335;SDS011;5213;53.548;9.930;2023-08-01T04:02:59;10.55;;;9.20;;
10335;SDS011;5213;53.548;9.930;2023-08-01T04:05:25;10.48;;;9.38;;
10335;SDS011;5213;53.548;9.930;2023-08-01T04:07:51;11.98;;;10.55;;
10335;SDS011;5213;53.548;9.930;2023-08-01T04:10:19;11.48;;;10.07;;
10335;SDS011;5213;53.548;9.930;2023-08-01T04:12:48;10.32;;;9.32;;
10335;SDS011;5213;53.548;9.930;2023-08-01T04:15:14;10.07;;;9.18;;
10335;SDS011;5213;53.548;9.930;2023-08-01T04:17:39;10.32;;;9.15;;
10335;SDS011;5213;53.548;9.930;2023-08-01T04:20:05;10.20;;;9.20;;
10335;SDS011;5213;53.548;9.930;2023-08-01T04:22:31;12.50;;;9.85;;
10335;SDS011;5213;53.548;9.930;2023-08-01T04:24:57;10.48;;;9.45;;
10335;SDS011;5213;53.548;9.930;2023-08-01T04:27:22;9.88;;;8.88;;
10335;SDS011;5213;53.548;9.930;2023-08-01T04:29:48;10.70;;;9.05;;
10335;SDS011;5213;53.548;9.930;2023-08-01T04:32:14;9.57;;;8.70;;
10335;SDS011;5213;53.548;9.930;2023-08-01T04:34:40;12.13;;;10.05;;
10335;SDS011;5213;53.548;9.930;2023-08-01T04:37:06;12.00;;;9.57;;
10335;SDS011;5213;53.548;9.930;2023-08-01T04:39:32;10.77;;;9.70;;
10335;SDS011;5213;53.548;9.930;2023-08-01T04:41:57;10.93;;;9.45;;
10335;SDS011;5213;53.548;9.930;2023-08-01T04:44:23;9.98;;;9.07;;
10335;SDS011;5213;53.548;9.930;2023-08-01T04:46:49;10.35;;;9.27;;
10335;SDS011;5213;53.548;9.930;2023-08-01T04:49:14;9.52;;;8.73;;
10335;SDS011;5213;53.548;9.930;2023-08-01T04:51:40;11.02;;;9.07;;
10335;SDS011;5213;53.548;9.930;2023-08-01T04:54:05;10.02;;;9.02;;
10335;SDS011;5213;53.548;9.930;2023-08-01T04:56:31;9.55;;;8.60;;
10335;SDS011;5213;53.548;9.930;2023-08-01T04:58:56;10.55;;;9.13;;
10335;SDS011;5213;53.548;9.930;2023-08-01T05:01:22;11.45;;;8.70;;
10335;SDS011;5213;53.548;9.930;2023-08-01T05:03:48;10.18;;;8.90;;
10335;SDS011;5213;53.548;9.930;2023-08-01T05:06:13;9.70;;;8.45;;
10335;SDS011;5213;53.548;9.930;2023-08-01T05:08:39;11.02;;;8.80;;
10335;SDS011;5213;53.548;9.930;2023-08-01T05:11:04;9.15;;;8.27;;
10335;SDS011;5213;53.548;9.930;2023-08-01T05:13:30;9.20;;;8.05;;
10335;SDS011;5213;53.548;9.930;2023-08-01T05:15:56;8.77;;;7.72;;
10335;SDS011;5213;53.548;9.930;2023-08-01T05:18:21;9.73;;;8.30;;
10335;SDS011;5213;53.548;9.930;2023-08-01T05:20:47;8.57;;;7.78;;
10335;SDS011;5213;53.548;9.930;2023-08-01T05:23:12;13.95;;;8.40;;
10335;SDS011;5213;53.548;9.930;2023-08-01T05:25:38;8.80;;;8.00;;
10335;SDS011;5213;53.548;9.930;2023-08-01T05:28:03;8.90;;;7.97;;
10335;SDS011;5213;53.548;9.930;2023-08-01T05:30:29;8.65;;;7.75;;
10335;SDS011;5213;53.548;9.930;2023-08-01T05:32:55;9.23;;;7.95;;
10335;SDS011;5213;53.548;9.930;2023-08-01T05:35:20;8.88;;;8.00;;
10335;SDS011;5213;53.548;9.930;2023-08-01T05:37:46;8.50;;;7.53;;
10335;SDS011;5213;53.548;9.930;2023-08-01T05:40:13;7.82;;;7.03;;
10335;SDS011;5213;53.548;9.930;2023-08-01T05:42:39;9.00;;;7.70;;
10335;SDS011;5213;53.548;9.930;2023-08-01T05:45:05;12.00;;;7.15;;
10335;SDS011;5213;53.548;9.930;2023-08-01T05:47:30;8.52;;;6.63;;
10335;SDS011;5213;53.548;9.930;2023-08-01T05:49:56;9.93;;;6.75;;
10335;SDS011;5213;53.548;9.930;2023-08-01T05:52:22;6.90;;;6.20;;
10335;SDS011;5213;53.548;9.930;2023-08-01T05:54:49;8.35;;;6.25;;
10335;SDS011;5213;53.548;9.930;2023-08-01T05:57:14;6.93;;;5.97;;
10335;SDS011;5213;53.548;9.930;2023-08-01T05:59:40;9.25;;;6.07;;
10335;SDS011;5213;53.548;9.930;2023-08-01T06:02:06;6.40;;;5.78;;
10335;SDS011;5213;53.548;9.930;2023-08-01T06:04:32;8.43;;;5.97;;
10335;SDS011;5213;53.548;9.930;2023-08-01T06:06:57;10.82;;;5.68;;
10335;SDS011;5213;53.548;9.930;2023-08-01T06:09:24;8.07;;;6.13;;
10335;SDS011;5213;53.548;9.930;2023-08-01T06:11:50;8.77;;;5.97;;
10335;SDS011;5213;53.548;9.930;2023-08-01T06:14:15;7.38;;;5.90;;
10335;SDS011;5213;53.548;9.930;2023-08-01T06:16:41;6.90;;;5.10;;
10335;SDS011;5213;53.548;9.930;2023-08-01T06:19:07;7.93;;;5.60;;
10335;SDS011;5213;53.548;9.930;2023-08-01T06:21:33;5.85;;;5.30;;
10335;SDS011;5213;53.548;9.930;2023-08-01T06:23:58;6.07;;;5.47;;
10335;SDS011;5213;53.548;9.930;2023-08-01T06:26:24;7.28;;;4.82;;
10335;SDS011;5213;53.548;9.930;2023-08-01T06:28:50;6.55;;;4.95;;
10335;SDS011;5213;53.548;9.930;2023-08-01T06:31:18;5.82;;;5.10;;
10335;SDS011;5213;53.548;9.930;2023-08-01T06:33:44;6.50;;;5.20;;
10335;SDS011;5213;53.548;9.930;2023-08-01T06:36:09;6.18;;;4.63;;
10335;SDS011;5213;53.548;9.930;2023-08-01T06:38:35;6.88;;;4.97;;
10335;SDS011;5213;53.548;9.930;2023-08-01T06:41:01;7.18;;;4.85;;
10335;SDS011;5213;53.548;9.930;2023-08-01T06:43:26;7.10;;;4.22;;
10335;SDS011;5213;53.548;9.930;2023-08-01T06:45:52;6.88;;;4.38;;
10335;SDS011;5213;53.548;9.930;2023-08-01T06:48:18;5.05;;;4.20;;
10335;SDS011;5213;53.548;9.930;2023-08-01T06:50:44;5.18;;;3.90;;
10335;SDS011;5213;53.548;9.930;2023-08-01T06:53:09;4.18;;;3.50;;
10335;SDS011;5213;53.548;9.930;2023-08-01T06:55:36;3.90;;;3.45;;
10335;SDS011;5213;53.548;9.930;2023-08-01T06:58:02;3.25;;;2.90;;
10335;SDS011;5213;53.548;9.930;2023-08-01T07:00:28;4.13;;;3.10;;
10335;SDS011;5213;53.548;9.930;2023-08-01T07:02:53;4.40;;;3.35;;
10335;SDS011;5213;53.548;9.930;2023-08-01T07:05:19;4.65;;;2.90;;
10335;SDS011;5213;53.548;9.930;2023-08-01T07:07:44;5.43;;;2.53;;
10335;SDS011;5213;53.548;9.930;2023-08-01T07:10:10;3.33;;;2.58;;
10335;SDS011;5213;53.548;9.930;2023-08-01T07:12:36;4.82;;;3.13;;
10335;SDS011;5213;53.548;9.930;2023-08-01T07:15:01;3.22;;;2.45;;
10335;SDS011;5213;53.548;9.930;2023-08-01T07:17:27;4.13;;;2.38;;
10335;SDS011;5213;53.548;9.930;2023-08-01T07:19:52;4.00;;;2.55;;
10335;SDS011;5213;53.548;9.930;2023-08-01T07:22:19;4.30;;;2.78;;
10335;SDS011;5213;53.548;9.930;2023-08-01T07:24:45;4.80;;;3.00;;
10335;SDS011;5213;53.548;9.930;2023-08-01T07:27:10;2.95;;;2.60;;
10335;SDS011;5213;53.548;9.930;2023-08-01T07:29:37;4.50;;;3.10;;
10335;SDS011;5213;53.548;9.930;2023-08-01T07:32:02;2.78;;;2.58;;
10335;SDS011;5213;53.548;9.930;2023-08-01T07:34:29;2.95;;;2.70;;
10335;SDS011;5213;53.548;9.930;2023-08-01T07:36:54;3.60;;;2.75;;
10335;SDS011;5213;53.548;9.930;2023-08-01T07:39:20;4.30;;;2.95;;
10335;SDS011;5213;53.548;9.930;2023-08-01T07:41:46;6.70;;;2.85;;
10335;SDS011;5213;53.548;9.930;2023-08-01T07:44:11;4.20;;;3.15;;
10335;SDS011;5213;53.548;9.930;2023-08-01T07:46:37;4.75;;;3.00;;
10335;SDS011;5213;53.548;9.930;2023-08-01T07:49:03;4.25;;;3.03;;
10335;SDS011;5213;53.548;9.930;2023-08-01T07:51:28;4.32;;;2.92;;
10335;SDS011;5213;53.548;9.930;2023-08-01T07:53:54;6.75;;;3.22;;
10335;SDS011;5213;53.548;9.930;2023-08-01T07:56:20;3.53;;;3.10;;
10335;SDS011;5213;53.548;9.930;2023-08-01T07:58:46;4.78;;;3.10;;
10335;SDS011;5213;53.548;9.930;2023-08-01T08:01:11;3.88;;;3.50;;
10335;SDS011;5213;53.548;9.930;2023-08-01T08:03:37;5.63;;;3.30;;
10335;SDS011;5213;53.548;9.930;2023-08-01T08:06:03;6.93;;;3.30;;
10335;SDS011;5213;53.548;9.930;2023-08-01T08:08:30;5.75;;;3.35;;
10335;SDS011;5213;53.548;9.930;2023-08-01T08:10:58;5.00;;;3.00;;
10335;SDS011;5213;53.548;9.930;2023-08-01T08:13:24;5.65;;;3.28;;
10335;SDS011;5213;53.548;9.930;2023-08-01T08:15:50;4.82;;;3.25;;
10335;SDS011;5213;53.548;9.930;2023-08-01T08:18:16;4.45;;;3.40;;
10335;SDS011;5213;53.548;9.930;2023-08-01T08:20:44;6.72;;;3.63;;
10335;SDS011;5213;53.548;9.930;2023-08-01T08:23:10;4.55;;;3.20;;
10335;SDS011;5213;53.548;9.930;2023-08-01T08:25:39;6.95;;;3.50;;
10335;SDS011;5213;53.548;9.930;2023-08-01T08:28:04;5.88;;;3.92;;
10335;SDS011;5213;53.548;9.930;2023-08-01T08:30:30;4.40;;;3.40;;
10335;SDS011;5213;53.548;9.930;2023-08-01T08:32:57;4.85;;;3.80;;
10335;SDS011;5213;53.548;9.930;2023-08-01T08:35:23;5.57;;;4.03;;
10335;SDS011;5213;53.548;9.930;2023-08-01T08:37:49;6.35;;;4.05;;
10335;SDS011;5213;53.548;9.930;2023-08-01T08:40:14;4.97;;;4.10;;
10335;SDS011;5213;53.548;9.930;2023-08-01T08:42:40;5.90;;;3.83;;
10335;SDS011;5213;53.548;9.930;2023-08-01T08:45:07;6.88;;;3.80;;
10335;SDS011;5213;53.548;9.930;2023-08-01T08:47:36;7.57;;;4.03;;
10335;SDS011;5213;53.548;9.930;2023-08-01T08:50:03;4.80;;;3.67;;
10335;SDS011;5213;53.548;9.930;2023-08-01T08:52:30;5.75;;;4.15;;
10335;SDS011;5213;53.548;9.930;2023-08-01T08:54:55;5.60;;;3.85;;
10335;SDS011;5213;53.548;9.930;2023-08-01T08:57:22;7.78;;;4.00;;
10335;SDS011;5213;53.548;9.930;2023-08-01T08:59:48;4.63;;;3.78;;
10335;SDS011;5213;53.548;9.930;2023-08-01T09:02:15;3.35;;;2.67;;
10335;SDS011;5213;53.548;9.930;2023-08-01T09:04:43;4.75;;;3.70;;
10335;SDS011;5213;53.548;9.930;2023-08-01T09:07:10;7.63;;;4.55;;
10335;SDS011;5213;53.548;9.930;2023-08-01T09:09:38;7.05;;;4.60;;
10335;SDS011;5213;53.548;9.930;2023-08-01T09:12:04;4.40;;;3.63;;
10335;SDS011;5213;53.548;9.930;2023-08-01T09:14:30;6.28;;;3.45;;
10335;SDS011;5213;53.548;9.930;2023-08-01T09:17:05;4.65;;;3.30;;
10335;SDS011;5213;53.548;9.930;2023-08-01T09:19:31;3.55;;;3.20;;
10335;SDS011;5213;53.548;9.930;2023-08-01T09:21:58;3.40;;;3.10;;
10335;SDS011;5213;53.548;9.930;2023-08-01T09:24:23;4.05;;;2.80;;
10335;SDS011;5213;53.548;9.930;2023-08-01T09:26:49;3.83;;;2.90;;
10335;SDS011;5213;53.548;9.930;2023-08-01T09:29:19;3.95;;;2.83;;
10335;SDS011;5213;53.548;9.930;2023-08-01T09:31:45;5.38;;;3.03;;
10335;SDS011;5213;53.548;9.930;2023-08-01T09:34:20;5.20;;;3.20;;
10335;SDS011;5213;53.548;9.930;2023-08-01T09:36:47;4.32;;;3.30;;
10335;SDS011;5213;53.548;9.930;2023-08-01T09:39:17;3.40;;;3.10;;
10335;SDS011;5213;53.548;9.930;2023-08-01T09:41:44;4.13;;;3.47;;
10335;SDS011;5213;53.548;9.930;2023-08-01T09:44:11;3.38;;;3.08;;
10335;SDS011;5213;53.548;9.930;2023-08-01T09:46:37;4.47;;;2.72;;
10335;SDS011;5213;53.548;9.930;2023-08-01T09:49:09;3.47;;;2.90;;
10335;SDS011;5213;53.548;9.930;2023-08-01T09:51:46;4.15;;;2.92;;
10335;SDS011;5213;53.548;9.930;2023-08-01T09:54:13;2.58;;;2.38;;
10335;SDS011;5213;53.548;9.930;2023-08-01T09:56:40;2.78;;;2.40;;
10335;SDS011;5213;53.548;9.930;2023-08-01T09:59:10;2.38;;;2.28;;
10335;SDS011;5213;53.548;9.930;2023-08-01T10:01:36;2.72;;;2.53;;
10335;SDS011;5213;53.548;9.930;2023-08-01T10:04:03;3.13;;;2.22;;
10335;SDS011;5213;53.548;9.930;2023-08-01T10:06:31;2.72;;;2.05;;
10335;SDS011;5213;53.548;9.930;2023-08-01T10:09:01;4.28;;;2.53;;
10335;SDS011;5213;53.548;9.930;2023-08-01T10:11:27;3.20;;;2.22;;
10335;SDS011;5213;53.548;9.930;2023-08-01T10:13:55;3.17;;;2.13;;
10335;SDS011;5213;53.548;9.930;2023-08-01T10:16:21;2.50;;;2.03;;
10335;SDS011;5213;53.548;9.930;2023-08-01T10:18:47;2.72;;;2.03;;
10335;SDS011;5213;53.548;9.930;2023-08-01T10:21:14;2.17;;;1.98;;
10335;SDS011;5213;53.548;9.930;2023-08-01T10:23:41;3.55;;;2.20;;
10335;SDS011;5213;53.548;9.930;2023-08-01T10:26:08;2.80;;;2.03;;
10335;SDS011;5213;53.548;9.930;2023-08-01T10:28:48;2.67;;;1.98;;
10335;SDS011;5213;53.548;9.930;2023-08-01T10:31:16;3.80;;;1.77;;
10335;SDS011;5213;53.548;9.930;2023-08-01T10:33:44;1.70;;;1.52;;
10335;SDS011;5213;53.548;9.930;2023-08-01T10:36:18;1.50;;;1.40;;
10335;SDS011;5213;53.548;9.930;2023-08-01T10:38:53;1.80;;;1.55;;
10335;SDS011;5213;53.548;9.930;2023-08-01T10:41:20;1.95;;;1.65;;
10335;SDS011;5213;53.548;9.930;2023-08-01T10:44:07;2.00;;;1.58;;
10335;SDS011;5213;53.548;9.930;2023-08-01T10:52:03;3.25;;;1.75;;
10335;SDS011;5213;53.548;9.930;2023-08-01T10:55:04;1.58;;;1.20;;
10335;SDS011;5213;53.548;9.930;2023-08-01T10:57:31;2.55;;;1.67;;
10335;SDS011;5213;53.548;9.930;2023-08-01T10:59:59;1.73;;;1.30;;
10335;SDS011;5213;53.548;9.930;2023-08-01T11:02:31;0.90;;;0.80;;
10335;SDS011;5213;53.548;9.930;2023-08-01T11:05:10;1.60;;;0.90;;
10335;SDS011;5213;53.548;9.930;2023-08-01T11:07:36;0.90;;;0.90;;
10335;SDS011;5213;53.548;9.930;2023-08-01T11:10:06;1.00;;;1.00;;
10335;SDS011;5213;53.548;9.930;2023-08-01T11:12:34;5.00;;;1.30;;
10335;SDS011;5213;53.548;9.930;2023-08-01T11:15:01;3.45;;;1.55;;
10335;SDS011;5213;53.548;9.930;2023-08-01T11:17:27;4.38;;;1.60;;
10335;SDS011;5213;53.548;9.930;2023-08-01T11:20:04;2.75;;;1.70;;
10335;SDS011;5213;53.548;9.930;2023-08-01T11:22:31;1.98;;;1.60;;
10335;SDS011;5213;53.548;9.930;2023-08-01T11:24:56;1.65;;;1.48;;
10335;SDS011;5213;53.548;9.930;2023-08-01T11:27:23;4.13;;;1.75;;
10335;SDS011;5213;53.548;9.930;2023-08-01T11:29:50;2.88;;;1.80;;
10335;SDS011;5213;53.548;9.930;2023-08-01T11:32:16;3.38;;;1.80;;
10335;SDS011;5213;53.548;9.930;2023-08-01T11:34:41;6.72;;;2.13;;
10335;SDS011;5213;53.548;9.930;2023-08-01T11:37:10;1.85;;;1.33;;
10335;SDS011;5213;53.548;9.930;2023-08-01T11:39:36;4.05;;;1.80;;
10335;SDS011;5213;53.548;9.930;2023-08-01T11:42:02;3.60;;;1.70;;
10335;SDS011;5213;53.548;9.930;2023-08-01T11:44:28;4.18;;;1.40;;
10335;SDS011;5213;53.548;9.930;2023-08-01T11:46:54;1.42;;;1.30;;
10335;SDS011;5213;53.548;9.930;2023-08-01T11:49:20;1.40;;;1.30;;
10335;SDS011;5213;53.548;9.930;2023-08-01T11:51:46;1.77;;;1.45;;
10335;SDS011;5213;53.548;9.930;2023-08-01T11:54:13;2.05;;;1.27;;
10335;SDS011;5213;53.548;9.930;2023-08-01T11:56:42;1.52;;;1.20;;
10335;SDS011;5213;53.548;9.930;2023-08-01T11:59:12;1.40;;;1.30;;
10335;SDS011;5213;53.548;9.930;2023-08-01T12:01:42;1.15;;;1.05;;
10335;SDS011;5213;53.548;9.930;2023-08-01T12:04:09;1.40;;;1.30;;
10335;SDS011;5213;53.548;9.930;2023-08-01T12:06:36;1.05;;;1.00;;
10335;SDS011;5213;53.548;9.930;2023-08-01T12:09:10;1.10;;;1.10;;
10335;SDS011;5213;53.548;9.930;2023-08-01T12:11:37;1.80;;;1.30;;
10335;SDS011;5213;53.548;9.930;2023-08-01T12:14:07;0.95;;;0.95;;
10335;SDS011;5213;53.548;9.930;2023-08-01T12:16:35;1.10;;;1.10;;
10335;SDS011;5213;53.548;9.930;2023-08-01T12:19:01;1.88;;;1.73;;
10335;SDS011;5213;53.548;9.930;2023-08-01T12:21:28;1.63;;;1.35;;
10335;SDS011;5213;53.548;9.930;2023-08-01T12:23:54;1.92;;;1.70;;
10335;SDS011;5213;53.548;9.930;2023-08-01T12:26:20;1.17;;;1.17;;
10335;SDS011;5213;53.548;9.930;2023-08-01T12:28:46;1.25;;;1.25;;
10335;SDS011;5213;53.548;9.930;2023-08-01T12:31:15;1.20;;;1.10;;
10335;SDS011;5213;53.548;9.930;2023-08-01T12:33:42;2.45;;;1.30;;
10335;SDS011;5213;53.548;9.930;2023-08-01T12:36:08;1.83;;;1.40;;
10335;SDS011;5213;53.548;9.930;2023-08-01T12:38:33;1.55;;;1.35;;
10335;SDS011;5213;53.548;9.930;2023-08-01T12:41:09;1.67;;;1.50;;
10335;SDS011;5213;53.548;9.930;2023-08-01T12:43:35;1.85;;;1.70;;
10335;SDS011;5213;53.548;9.930;2023-08-01T12:46:01;1.55;;;1.40;;
10335;SDS011;5213;53.548;9.930;2023-08-01T12:48:27;4.55;;;4.05;;
10335;SDS011;5213;53.548;9.930;2023-08-01T12:50:53;2.38;;;2.20;;
10335;SDS011;5213;53.548;9.930;2023-08-01T12:53:22;1.58;;;1.38;;
10335;SDS011;5213;53.548;9.930;2023-08-01T12:55:49;1.17;;;1.08;;
10335;SDS011;5213;53.548;9.930;2023-08-01T12:58:16;1.60;;;1.50;;
10335;SDS011;5213;53.548;9.930;2023-08-01T13:00:42;1.00;;;1.00;;
10335;SDS011;5213;53.548;9.930;2023-08-01T13:03:09;1.30;;;1.20;;
10335;SDS011;5213;53.548;9.930;2023-08-01T13:05:35;2.15;;;1.10;;
10335;SDS011;5213;53.548;9.930;2023-08-01T13:08:02;4.40;;;1.30;;
10335;SDS011;5213;53.548;9.930;2023-08-01T13:10:31;2.40;;;1.20;;
10335;SDS011;5213;53.548;9.930;2023-08-01T13:12:58;1.38;;;1.27;;
10335;SDS011;5213;53.548;9.930;2023-08-01T13:15:24;1.10;;;1.10;;
10335;SDS011;5213;53.548;9.930;2023-08-01T13:17:50;1.65;;;1.27;;
10335;SDS011;5213;53.548;9.930;2023-08-01T13:20:16;1.20;;;1.20;;
10335;SDS011;5213;53.548;9.930;2023-08-01T13:22:42;1.40;;;1.30;;
10335;SDS011;5213;53.548;9.930;2023-08-01T13:25:09;2.17;;;1.30;;
10335;SDS011;5213;53.548;9.930;2023-08-01T13:27:35;1.42;;;1.20;;
10335;SDS011;5213;53.548;9.930;2023-08-01T13:30:01;1.40;;;1.30;;
10335;SDS011;5213;53.548;9.930;2023-08-01T13:32:27;1.25;;;1.25;;
10335;SDS011;5213;53.548;9.930;2023-08-01T13:34:53;1.00;;;1.00;;
10335;SDS011;5213;53.548;9.930;2023-08-01T13:37:18;2.78;;;1.45;;
10335;SDS011;5213;53.548;9.930;2023-08-01T13:39:44;2.08;;;1.40;;
10335;SDS011;5213;53.548;9.930;2023-08-01T13:42:11;1.38;;;1.25;;
10335;SDS011;5213;53.548;9.930;2023-08-01T13:44:37;2.30;;;1.13;;
10335;SDS011;5213;53.548;9.930;2023-08-01T13:47:03;1.05;;;0.90;;
10335;SDS011;5213;53.548;9.930;2023-08-01T13:49:29;0.95;;;0.95;;
10335;SDS011;5213;53.548;9.930;2023-08-01T13:51:55;1.10;;;0.95;;
10335;SDS011;5213;53.548;9.930;2023-08-01T13:54:20;1.20;;;1.20;;
10335;SDS011;5213;53.548;9.930;2023-08-01T13:56:46;1.10;;;1.10;;
10335;SDS011;5213;53.548;9.930;2023-08-01T13:59:12;1.10;;;1.00;;
10335;SDS011;5213;53.548;9.930;2023-08-01T14:01:38;1.27;;;1.17;;
10335;SDS011;5213;53.548;9.930;2023-08-01T14:04:03;1.10;;;1.10;;
10335;SDS011;5213;53.548;9.930;2023-08-01T14:06:29;0.93;;;0.93;;
10335;SDS011;5213;53.548;9.930;2023-08-01T14:08:55;1.00;;;1.00;;
10335;SDS011;5213;53.548;9.930;2023-08-01T14:11:21;4.53;;;1.38;;
10335;SDS011;5213;53.548;9.930;2023-08-01T14:13:46;4.20;;;1.50;;
10335;SDS011;5213;53.548;9.930;2023-08-01T14:16:12;1.02;;;0.90;;
10335;SDS011;5213;53.548;9.930;2023-08-01T14:18:37;1.00;;;0.80;;
10335;SDS011;5213;53.548;9.930;2023-08-01T14:21:04;1.05;;;1.05;;
10335;SDS011;5213;53.548;9.930;2023-08-01T14:23:30;2.25;;;1.00;;
10335;SDS011;5213;53.548;9.930;2023-08-01T14:25:57;1.30;;;1.05;;
10335;SDS011;5213;53.548;9.930;2023-08-01T14:28:23;0.90;;;0.90;;
10335;SDS011;5213;53.548;9.930;2023-08-01T14:30:48;1.00;;;1.00;;
10335;SDS011;5213;53.548;9.930;2023-08-01T14:33:14;1.10;;;1.10;;
10335;SDS011;5213;53.548;9.930;2023-08-01T14:35:40;1.65;;;1.05;;
10335;SDS011;5213;53.548;9.930;2023-08-01T14:38:05;1.10;;;1.00;;
10335;SDS011;5213;53.548;9.930;2023-08-01T14:40:31;1.45;;;0.98;;
10335;SDS011;5213;53.548;9.930;2023-08-01T14:42:59;1.10;;;1.10;;
10335;SDS011;5213;53.548;9.930;2023-08-01T14:45:24;1.83;;;1.23;;
10335;SDS011;5213;53.548;9.930;2023-08-01T14:47:50;1.40;;;1.30;;
10335;SDS011;5213;53.548;9.930;2023-08-01T14:50:16;0.90;;;0.90;;
10335;SDS011;5213;53.548;9.930;2023-08-01T14:52:41;1.27;;;1.15;;
10335;SDS011;5213;53.548;9.930;2023-08-01T14:55:07;3.92;;;1.17;;
10335;SDS011;5213;53.548;9.930;2023-08-01T14:57:33;1.48;;;1.13;;
10335;SDS011;5213;53.548;9.930;2023-08-01T14:59:59;1.35;;;1.00;;
10335;SDS011;5213;53.548;9.930;2023-08-01T15:02:25;1.00;;;1.00;;
10335;SDS011;5213;53.548;9.930;2023-08-01T15:04:51;1.13;;;1.10;;